EZY8467 EGKK-LFRB
Flight info
| Callsign | EZY8467 |
|---|---|
| Flight time | 0h 54m |
| Altitude | 27000 |
| Route | IMVUR N63 SAM M195 IBNID/N0407F290 M195 MARUK N621 LELNA DCT BADUR/N0394F280 T120 ANLEV |
| Aircraft | A320/M-SDE2E3FGHIJ1RWXYZ/LB1 |
Departure
| Time | 2026-04-22 15:39 |
|---|---|
| Airport | London Gatwick Airport (EGKK) |
Arrival
| Time | 2026-04-22 16:33 |
|---|---|
| Airport | Brest Bretagne airport (LFRB) |
| Time | Latitude | Longitude | Altitude | Speed | Heading |
|---|---|---|---|---|---|
| 2026-04-22 14:59 | 51.15656 | -0.17794 | 219 ft | 0 kts | 167° |
| 2026-04-22 15:25 | 51.15662 | -0.17796 | 217 ft | 4 kts | 167° |
| 2026-04-22 15:25 | 51.15684 | -0.17804 | 218 ft | 3 kts | 168° |
| 2026-04-22 15:25 | 51.15709 | -0.17804 | 219 ft | 4 kts | 211° |
| 2026-04-22 15:26 | 51.15725 | -0.17775 | 215 ft | 3 kts | 257° |
| 2026-04-22 15:26 | 51.15731 | -0.17735 | 214 ft | 4 kts | 258° |
| 2026-04-22 15:26 | 51.15734 | -0.17715 | 212 ft | 0 kts | 258° |
| 2026-04-22 15:29 | 51.15731 | -0.17735 | 214 ft | 3 kts | 258° |
| 2026-04-22 15:29 | 51.15725 | -0.17782 | 215 ft | 6 kts | 258° |
| 2026-04-22 15:29 | 51.15715 | -0.17853 | 211 ft | 8 kts | 256° |
| 2026-04-22 15:30 | 51.15692 | -0.18007 | 211 ft | 8 kts | 258° |
| 2026-04-22 15:30 | 51.15680 | -0.18097 | 208 ft | 8 kts | 258° |
| 2026-04-22 15:30 | 51.15663 | -0.18180 | 214 ft | 8 kts | 234° |
| 2026-04-22 15:30 | 51.15614 | -0.18238 | 208 ft | 9 kts | 213° |
| 2026-04-22 15:31 | 51.15562 | -0.18293 | 211 ft | 12 kts | 213° |
| 2026-04-22 15:31 | 51.15446 | -0.18299 | 214 ft | 21 kts | 166° |
| 2026-04-22 15:31 | 51.15298 | -0.18243 | 208 ft | 22 kts | 168° |
| 2026-04-22 15:31 | 51.15191 | -0.18249 | 213 ft | 3 kts | 250° |
| 2026-04-22 15:32 | 51.15182 | -0.18342 | 210 ft | 16 kts | 259° |
| 2026-04-22 15:32 | 51.15156 | -0.18542 | 211 ft | 19 kts | 258° |
| 2026-04-22 15:32 | 51.15130 | -0.18739 | 207 ft | 17 kts | 253° |
| 2026-04-22 15:32 | 51.15102 | -0.18914 | 209 ft | 15 kts | 257° |
| 2026-04-22 15:33 | 51.15081 | -0.19068 | 211 ft | 13 kts | 258° |
| 2026-04-22 15:33 | 51.15060 | -0.19229 | 208 ft | 17 kts | 258° |
| 2026-04-22 15:33 | 51.15028 | -0.19441 | 218 ft | 22 kts | 258° |
| 2026-04-22 15:33 | 51.14996 | -0.19698 | 214 ft | 26 kts | 257° |
| 2026-04-22 15:34 | 51.14955 | -0.20000 | 219 ft | 30 kts | 257° |
| 2026-04-22 15:34 | 51.14913 | -0.20307 | 218 ft | 26 kts | 257° |
| 2026-04-22 15:34 | 51.14883 | -0.20526 | 215 ft | 19 kts | 256° |
| 2026-04-22 15:34 | 51.14854 | -0.20718 | 212 ft | 17 kts | 258° |
| 2026-04-22 15:35 | 51.14835 | -0.20890 | 213 ft | 15 kts | 256° |
| 2026-04-22 15:35 | 51.14811 | -0.21035 | 215 ft | 13 kts | 255° |
| 2026-04-22 15:35 | 51.14789 | -0.21160 | 211 ft | 11 kts | 248° |
| 2026-04-22 15:35 | 51.14770 | -0.21269 | 209 ft | 9 kts | 257° |
| 2026-04-22 15:36 | 51.14751 | -0.21359 | 216 ft | 7 kts | 234° |
| 2026-04-22 15:36 | 51.14711 | -0.21365 | 217 ft | 5 kts | 172° |
| 2026-04-22 15:36 | 51.14678 | -0.21353 | 208 ft | 4 kts | 164° |
| 2026-04-22 15:36 | 51.14644 | -0.21337 | 213 ft | 6 kts | 164° |
| 2026-04-22 15:37 | 51.14607 | -0.21320 | 211 ft | 5 kts | 164° |
| 2026-04-22 15:37 | 51.14544 | -0.21275 | 213 ft | 14 kts | 135° |
| 2026-04-22 15:37 | 51.14524 | -0.21127 | 211 ft | 11 kts | 80° |
| 2026-04-22 15:37 | 51.14525 | -0.21121 | 213 ft | 0 kts | 80° |
| 2026-04-22 15:38 | 51.14525 | -0.21116 | 218 ft | 1 kts | 80° |
| 2026-04-22 15:38 | 51.14572 | -0.20792 | 212 ft | 65 kts | 78° |
| 2026-04-22 15:38 | 51.14714 | -0.19765 | 220 ft | 122 kts | 77° |
| 2026-04-22 15:39 | 51.14923 | -0.18215 | 351 ft | 155 kts | 77° |
| 2026-04-22 15:39 | 51.15150 | -0.16460 | 807 ft | 169 kts | 77° |
| 2026-04-22 15:39 | 51.15398 | -0.14544 | 1389 ft | 183 kts | 78° |
| 2026-04-22 15:39 | 51.15675 | -0.12477 | 1994 ft | 196 kts | 78° |
| 2026-04-22 15:40 | 51.15978 | -0.10327 | 2751 ft | 203 kts | 78° |
| 2026-04-22 15:40 | 51.16290 | -0.08123 | 2961 ft | 204 kts | 78° |
| 2026-04-22 15:40 | 51.16790 | -0.06032 | 3004 ft | 206 kts | 53° |
| 2026-04-22 15:40 | 51.18037 | -0.04891 | 3009 ft | 219 kts | 12° |
| 2026-04-22 15:41 | 51.19594 | -0.05070 | 3014 ft | 229 kts | 356° |
| 2026-04-22 15:41 | 51.21162 | -0.05649 | 3007 ft | 235 kts | 343° |
| 2026-04-22 15:41 | 51.22405 | -0.07394 | 3349 ft | 248 kts | 295° |
| 2026-04-22 15:41 | 51.22571 | -0.09862 | 4752 ft | 208 kts | 248° |
| 2026-04-22 15:42 | 51.21877 | -0.11947 | 5327 ft | 239 kts | 232° |
| 2026-04-22 15:42 | 51.21181 | -0.14543 | 5611 ft | 271 kts | 256° |
| 2026-04-22 15:42 | 51.20958 | -0.17660 | 6130 ft | 291 kts | 265° |
| 2026-04-22 15:42 | 51.20885 | -0.20924 | 6926 ft | 297 kts | 265° |
| 2026-04-22 15:43 | 51.20783 | -0.24221 | 7750 ft | 299 kts | 263° |
| 2026-04-22 15:43 | 51.20593 | -0.27538 | 8590 ft | 302 kts | 261° |
| 2026-04-22 15:43 | 51.20313 | -0.30876 | 9421 ft | 305 kts | 258° |
| 2026-04-22 15:43 | 51.19970 | -0.34222 | 10253 ft | 307 kts | 257° |
| 2026-04-22 15:44 | 51.19575 | -0.37580 | 11001 ft | 310 kts | 256° |
| 2026-04-22 15:44 | 51.19136 | -0.40952 | 11737 ft | 312 kts | 255° |
| 2026-04-22 15:44 | 51.18675 | -0.44355 | 12478 ft | 315 kts | 255° |
| 2026-04-22 15:44 | 51.18214 | -0.47739 | 13194 ft | 318 kts | 255° |
| 2026-04-22 15:45 | 51.17746 | -0.51199 | 13922 ft | 321 kts | 255° |
| 2026-04-22 15:45 | 51.17116 | -0.54622 | 14473 ft | 327 kts | 245° |
| 2026-04-22 15:45 | 51.16207 | -0.58073 | 14599 ft | 348 kts | 244° |
| 2026-04-22 15:45 | 51.15235 | -0.61694 | 14929 ft | 361 kts | 244° |
| 2026-04-22 15:46 | 51.14237 | -0.65400 | 15494 ft | 366 kts | 245° |
| 2026-04-22 15:46 | 51.13232 | -0.69143 | 16121 ft | 369 kts | 245° |
| 2026-04-22 15:46 | 51.12222 | -0.72917 | 16746 ft | 372 kts | 246° |
| 2026-04-22 15:46 | 51.11206 | -0.76717 | 17375 ft | 374 kts | 246° |
| 2026-04-22 15:47 | 51.10182 | -0.80547 | 17975 ft | 377 kts | 247° |
| 2026-04-22 15:47 | 51.09148 | -0.84400 | 18581 ft | 380 kts | 247° |
| 2026-04-22 15:47 | 51.08103 | -0.88283 | 19124 ft | 383 kts | 248° |
| 2026-04-22 15:47 | 51.07051 | -0.92191 | 19678 ft | 386 kts | 248° |
| 2026-04-22 15:48 | 51.05991 | -0.96122 | 20250 ft | 388 kts | 248° |
| 2026-04-22 15:48 | 51.04921 | -1.00070 | 20819 ft | 390 kts | 248° |
| 2026-04-22 15:48 | 51.03842 | -1.04039 | 21375 ft | 392 kts | 248° |
| 2026-04-22 15:48 | 51.02758 | -1.08030 | 21928 ft | 395 kts | 248° |
| 2026-04-22 15:49 | 51.01666 | -1.12044 | 22479 ft | 397 kts | 249° |
| 2026-04-22 15:49 | 51.00566 | -1.16078 | 23034 ft | 400 kts | 249° |
| 2026-04-22 15:49 | 50.99456 | -1.20137 | 23557 ft | 402 kts | 248° |
| 2026-04-22 15:49 | 50.98337 | -1.24216 | 24045 ft | 404 kts | 249° |
| 2026-04-22 15:50 | 50.97209 | -1.28311 | 24493 ft | 406 kts | 246° |
| 2026-04-22 15:50 | 50.95788 | -1.32197 | 24943 ft | 409 kts | 236° |
| 2026-04-22 15:50 | 50.93931 | -1.35637 | 25393 ft | 412 kts | 226° |
| 2026-04-22 15:50 | 50.91697 | -1.38504 | 25843 ft | 415 kts | 216° |
| 2026-04-22 15:51 | 50.89279 | -1.41017 | 26280 ft | 416 kts | 216° |
| 2026-04-22 15:51 | 50.86857 | -1.43531 | 26705 ft | 417 kts | 216° |
| 2026-04-22 15:51 | 50.84461 | -1.46020 | 27117 ft | 417 kts | 216° |
| 2026-04-22 15:51 | 50.82002 | -1.48571 | 27248 ft | 415 kts | 216° |
| 2026-04-22 15:52 | 50.79637 | -1.51017 | 27272 ft | 399 kts | 216° |
| 2026-04-22 15:52 | 50.77335 | -1.53397 | 27271 ft | 393 kts | 216° |
| 2026-04-22 15:52 | 50.75086 | -1.55727 | 27273 ft | 390 kts | 216° |
| 2026-04-22 15:52 | 50.72820 | -1.58076 | 27272 ft | 389 kts | 216° |
| 2026-04-22 15:53 | 50.70555 | -1.60419 | 27271 ft | 389 kts | 216° |
| 2026-04-22 15:53 | 50.68292 | -1.62755 | 27271 ft | 389 kts | 216° |
| 2026-04-22 15:53 | 50.66027 | -1.65086 | 27273 ft | 389 kts | 216° |
| 2026-04-22 15:53 | 50.63762 | -1.67418 | 27273 ft | 389 kts | 216° |
| 2026-04-22 15:54 | 50.61495 | -1.69748 | 27271 ft | 389 kts | 216° |
| 2026-04-22 15:54 | 50.59227 | -1.72077 | 27268 ft | 389 kts | 216° |
| 2026-04-22 15:54 | 50.56956 | -1.74399 | 27265 ft | 389 kts | 216° |
| 2026-04-22 15:54 | 50.54684 | -1.76716 | 27262 ft | 389 kts | 216° |
| 2026-04-22 15:55 | 50.52414 | -1.79033 | 27261 ft | 389 kts | 216° |
| 2026-04-22 15:55 | 50.50147 | -1.81348 | 27257 ft | 389 kts | 216° |
| 2026-04-22 15:55 | 50.47879 | -1.83666 | 27255 ft | 389 kts | 215° |
| 2026-04-22 15:55 | 50.45610 | -1.85981 | 27254 ft | 389 kts | 215° |
| 2026-04-22 15:56 | 50.43341 | -1.88292 | 27253 ft | 389 kts | 215° |
| 2026-04-22 15:56 | 50.41073 | -1.90597 | 27251 ft | 388 kts | 215° |
| 2026-04-22 15:56 | 50.38807 | -1.92897 | 27253 ft | 388 kts | 215° |
| 2026-04-22 15:56 | 50.36540 | -1.95197 | 27248 ft | 388 kts | 215° |
| 2026-04-22 15:57 | 50.34276 | -1.97491 | 27246 ft | 388 kts | 215° |
| 2026-04-22 15:57 | 50.32009 | -1.99782 | 27246 ft | 388 kts | 215° |
| 2026-04-22 15:57 | 50.29744 | -2.02065 | 27248 ft | 388 kts | 215° |
| 2026-04-22 15:57 | 50.27474 | -2.04345 | 27245 ft | 388 kts | 213° |
| 2026-04-22 15:58 | 50.25063 | -2.06238 | 27249 ft | 390 kts | 203° |
| 2026-04-22 15:58 | 50.22448 | -2.07410 | 27246 ft | 392 kts | 192° |
| 2026-04-22 15:58 | 50.19728 | -2.07883 | 27240 ft | 394 kts | 187° |
| 2026-04-22 15:58 | 50.16994 | -2.08225 | 27240 ft | 394 kts | 187° |
| 2026-04-22 15:59 | 50.14262 | -2.08572 | 27235 ft | 394 kts | 187° |
| 2026-04-22 15:59 | 50.11529 | -2.08920 | 27234 ft | 394 kts | 187° |
| 2026-04-22 15:59 | 50.08800 | -2.09271 | 27233 ft | 394 kts | 187° |
| 2026-04-22 15:59 | 50.06064 | -2.09624 | 27236 ft | 394 kts | 187° |
| 2026-04-22 16:00 | 50.04256 | -2.09858 | 27234 ft | 394 kts | 187° |
| 2026-04-22 16:00 | 50.00643 | -2.10338 | 27228 ft | 393 kts | 188° |
| 2026-04-22 16:00 | 49.97927 | -2.11121 | 27227 ft | 390 kts | 198° |
| 2026-04-22 16:00 | 49.95400 | -2.12573 | 27222 ft | 387 kts | 206° |
| 2026-04-22 16:01 | 49.92931 | -2.14267 | 27207 ft | 388 kts | 206° |
| 2026-04-22 16:01 | 49.90465 | -2.15955 | 27209 ft | 387 kts | 206° |
| 2026-04-22 16:01 | 49.87999 | -2.17637 | 27210 ft | 387 kts | 206° |
| 2026-04-22 16:01 | 49.85534 | -2.19313 | 27212 ft | 387 kts | 206° |
| 2026-04-22 16:02 | 49.83104 | -2.20964 | 27225 ft | 387 kts | 206° |
| 2026-04-22 16:02 | 49.80640 | -2.22634 | 27223 ft | 386 kts | 206° |
| 2026-04-22 16:02 | 49.78182 | -2.24300 | 27226 ft | 386 kts | 206° |
| 2026-04-22 16:02 | 49.75723 | -2.25964 | 27222 ft | 386 kts | 206° |
| 2026-04-22 16:03 | 49.73265 | -2.27625 | 27226 ft | 386 kts | 206° |
| 2026-04-22 16:03 | 49.70802 | -2.29287 | 27224 ft | 386 kts | 206° |
| 2026-04-22 16:03 | 49.68344 | -2.30942 | 27226 ft | 385 kts | 206° |
| 2026-04-22 16:03 | 49.65890 | -2.32596 | 27222 ft | 385 kts | 206° |
| 2026-04-22 16:04 | 49.63427 | -2.34254 | 27223 ft | 385 kts | 206° |
| 2026-04-22 16:04 | 49.60971 | -2.35905 | 27221 ft | 385 kts | 206° |
| 2026-04-22 16:04 | 49.58516 | -2.37550 | 27213 ft | 385 kts | 206° |
| 2026-04-22 16:04 | 49.56059 | -2.39194 | 27207 ft | 385 kts | 206° |
| 2026-04-22 16:05 | 49.54432 | -2.40284 | 27172 ft | 385 kts | 206° |
| 2026-04-22 16:05 | 49.51145 | -2.42488 | 27165 ft | 385 kts | 206° |
| 2026-04-22 16:05 | 49.48687 | -2.44134 | 27162 ft | 386 kts | 206° |
| 2026-04-22 16:05 | 49.46220 | -2.45779 | 27156 ft | 386 kts | 206° |
| 2026-04-22 16:06 | 49.43761 | -2.47417 | 27161 ft | 386 kts | 206° |
| 2026-04-22 16:06 | 49.41292 | -2.49061 | 27160 ft | 386 kts | 206° |
| 2026-04-22 16:06 | 49.38831 | -2.50699 | 27156 ft | 386 kts | 206° |
| 2026-04-22 16:06 | 49.36364 | -2.52340 | 27157 ft | 386 kts | 206° |
| 2026-04-22 16:07 | 49.33902 | -2.53976 | 27161 ft | 386 kts | 206° |
| 2026-04-22 16:07 | 49.31435 | -2.55613 | 27162 ft | 386 kts | 206° |
| 2026-04-22 16:07 | 49.28972 | -2.57245 | 27162 ft | 386 kts | 206° |
| 2026-04-22 16:07 | 49.26509 | -2.58873 | 27165 ft | 386 kts | 206° |
| 2026-04-22 16:08 | 49.24050 | -2.60495 | 27168 ft | 386 kts | 206° |
| 2026-04-22 16:08 | 49.21587 | -2.62122 | 27166 ft | 386 kts | 206° |
| 2026-04-22 16:08 | 49.19122 | -2.63750 | 27165 ft | 385 kts | 206° |
| 2026-04-22 16:08 | 49.16697 | -2.65354 | 27165 ft | 385 kts | 205° |
| 2026-04-22 16:09 | 49.14199 | -2.67005 | 27165 ft | 385 kts | 206° |
| 2026-04-22 16:09 | 49.11772 | -2.68605 | 27164 ft | 385 kts | 205° |
| 2026-04-22 16:09 | 49.09313 | -2.70223 | 27160 ft | 385 kts | 205° |
| 2026-04-22 16:09 | 49.06856 | -2.71838 | 27159 ft | 385 kts | 205° |
| 2026-04-22 16:10 | 49.04393 | -2.73451 | 27157 ft | 385 kts | 205° |
| 2026-04-22 16:10 | 49.01936 | -2.75060 | 27153 ft | 385 kts | 205° |
| 2026-04-22 16:10 | 49.00276 | -2.76147 | 27151 ft | 385 kts | 205° |
| 2026-04-22 16:10 | 48.97816 | -2.77752 | 27151 ft | 385 kts | 205° |
| 2026-04-22 16:11 | 48.95390 | -2.79337 | 27151 ft | 385 kts | 205° |
| 2026-04-22 16:11 | 48.92898 | -2.80961 | 27147 ft | 384 kts | 205° |
| 2026-04-22 16:11 | 48.90439 | -2.82562 | 27145 ft | 384 kts | 205° |
| 2026-04-22 16:11 | 48.88017 | -2.84139 | 27141 ft | 384 kts | 205° |
| 2026-04-22 16:12 | 48.85558 | -2.85738 | 27027 ft | 383 kts | 205° |
| 2026-04-22 16:12 | 48.83108 | -2.87328 | 26492 ft | 382 kts | 205° |
| 2026-04-22 16:12 | 48.80678 | -2.88900 | 26051 ft | 378 kts | 205° |
| 2026-04-22 16:12 | 48.78263 | -2.90462 | 25600 ft | 376 kts | 205° |
| 2026-04-22 16:13 | 48.75870 | -2.92009 | 25144 ft | 373 kts | 206° |
| 2026-04-22 16:13 | 48.73626 | -2.93916 | 24682 ft | 368 kts | 219° |
| 2026-04-22 16:13 | 48.71784 | -2.96565 | 24210 ft | 364 kts | 232° |
| 2026-04-22 16:13 | 48.70438 | -2.99788 | 23708 ft | 363 kts | 246° |
| 2026-04-22 16:14 | 48.69636 | -3.03399 | 23154 ft | 362 kts | 255° |
| 2026-04-22 16:14 | 48.69012 | -3.07082 | 22664 ft | 360 kts | 255° |
| 2026-04-22 16:14 | 48.68417 | -3.10746 | 22201 ft | 357 kts | 256° |
| 2026-04-22 16:14 | 48.67843 | -3.14388 | 21757 ft | 355 kts | 256° |
| 2026-04-22 16:15 | 48.67277 | -3.18016 | 21305 ft | 353 kts | 256° |
| 2026-04-22 16:15 | 48.66715 | -3.21620 | 20855 ft | 350 kts | 256° |
| 2026-04-22 16:15 | 48.66152 | -3.25195 | 20409 ft | 348 kts | 256° |
| 2026-04-22 16:15 | 48.65587 | -3.28745 | 19976 ft | 347 kts | 255° |
| 2026-04-22 16:16 | 48.65020 | -3.32284 | 19525 ft | 345 kts | 255° |
| 2026-04-22 16:16 | 48.64452 | -3.35798 | 19086 ft | 344 kts | 255° |
| 2026-04-22 16:16 | 48.63884 | -3.39302 | 18659 ft | 342 kts | 255° |
| 2026-04-22 16:16 | 48.63320 | -3.42783 | 18230 ft | 341 kts | 255° |
| 2026-04-22 16:17 | 48.62756 | -3.46237 | 17794 ft | 338 kts | 255° |
| 2026-04-22 16:17 | 48.62196 | -3.49676 | 17387 ft | 335 kts | 255° |
| 2026-04-22 16:17 | 48.61640 | -3.53097 | 16932 ft | 334 kts | 255° |
| 2026-04-22 16:17 | 48.61202 | -3.56538 | 16520 ft | 333 kts | 262° |
| 2026-04-22 16:18 | 48.60923 | -3.59997 | 16099 ft | 331 kts | 262° |
| 2026-04-22 16:18 | 48.60642 | -3.63391 | 15705 ft | 329 kts | 261° |
| 2026-04-22 16:18 | 48.60352 | -3.66815 | 15302 ft | 328 kts | 261° |
| 2026-04-22 16:18 | 48.60060 | -3.70226 | 14908 ft | 327 kts | 261° |
| 2026-04-22 16:19 | 48.59766 | -3.73628 | 14514 ft | 326 kts | 261° |
| 2026-04-22 16:19 | 48.59473 | -3.77012 | 14118 ft | 325 kts | 261° |
| 2026-04-22 16:19 | 48.59184 | -3.80390 | 13699 ft | 324 kts | 261° |
| 2026-04-22 16:19 | 48.58898 | -3.83759 | 13292 ft | 322 kts | 261° |
| 2026-04-22 16:20 | 48.58784 | -3.85106 | 13137 ft | 321 kts | 261° |
| 2026-04-22 16:20 | 48.58495 | -3.88446 | 12735 ft | 320 kts | 261° |
| 2026-04-22 16:20 | 48.58206 | -3.91759 | 12331 ft | 317 kts | 261° |
| 2026-04-22 16:20 | 48.57917 | -3.95056 | 11937 ft | 316 kts | 261° |
| 2026-04-22 16:21 | 48.57629 | -3.98340 | 11535 ft | 315 kts | 261° |
| 2026-04-22 16:21 | 48.57343 | -4.01608 | 11131 ft | 313 kts | 261° |
| 2026-04-22 16:21 | 48.57059 | -4.04866 | 10726 ft | 313 kts | 261° |
| 2026-04-22 16:21 | 48.56776 | -4.08096 | 10495 ft | 306 kts | 260° |
| 2026-04-22 16:22 | 48.56232 | -4.14268 | 9997 ft | 290 kts | 260° |
| 2026-04-22 16:22 | 48.55967 | -4.17274 | 9314 ft | 288 kts | 260° |
| 2026-04-22 16:22 | 48.55700 | -4.20257 | 8721 ft | 286 kts | 260° |
| 2026-04-22 16:23 | 48.55165 | -4.26218 | 7864 ft | 287 kts | 260° |
| 2026-04-22 16:23 | 48.54899 | -4.29168 | 7457 ft | 288 kts | 259° |
| 2026-04-22 16:23 | 48.54626 | -4.32163 | 7025 ft | 289 kts | 259° |
| 2026-04-22 16:24 | 48.54350 | -4.35169 | 6597 ft | 290 kts | 260° |
| 2026-04-22 16:24 | 48.53803 | -4.41181 | 5738 ft | 290 kts | 259° |
| 2026-04-22 16:24 | 48.53533 | -4.44162 | 5518 ft | 282 kts | 259° |
| 2026-04-22 16:25 | 48.53267 | -4.47083 | 5191 ft | 278 kts | 259° |
| 2026-04-22 16:25 | 48.52770 | -4.52560 | 5060 ft | 251 kts | 259° |
| 2026-04-22 16:25 | 48.52348 | -4.55029 | 4945 ft | 238 kts | 247° |
| 2026-04-22 16:26 | 48.51818 | -4.57350 | 4806 ft | 230 kts | 247° |
| 2026-04-22 16:26 | 48.51304 | -4.59603 | 4674 ft | 226 kts | 247° |
| 2026-04-22 16:26 | 48.50792 | -4.61838 | 4543 ft | 225 kts | 247° |
| 2026-04-22 16:26 | 48.50281 | -4.64071 | 4416 ft | 225 kts | 247° |
| 2026-04-22 16:27 | 48.49744 | -4.66292 | 4244 ft | 225 kts | 238° |
| 2026-04-22 16:27 | 48.48799 | -4.68058 | 4131 ft | 214 kts | 210° |
| 2026-04-22 16:27 | 48.47486 | -4.68951 | 4077 ft | 200 kts | 184° |
| 2026-04-22 16:27 | 48.46169 | -4.68899 | 4044 ft | 181 kts | 160° |
| 2026-04-22 16:28 | 48.45049 | -4.68143 | 3951 ft | 175 kts | 145° |
| 2026-04-22 16:28 | 48.44014 | -4.67215 | 3744 ft | 172 kts | 145° |
| 2026-04-22 16:28 | 48.42981 | -4.66295 | 3568 ft | 172 kts | 145° |
| 2026-04-22 16:28 | 48.41952 | -4.65380 | 3372 ft | 172 kts | 144° |
| 2026-04-22 16:29 | 48.40956 | -4.64392 | 3169 ft | 170 kts | 132° |
| 2026-04-22 16:29 | 48.40376 | -4.62895 | 2977 ft | 167 kts | 103° |
| 2026-04-22 16:29 | 48.40397 | -4.61180 | 2742 ft | 169 kts | 75° |
| 2026-04-22 16:29 | 48.40779 | -4.59519 | 2498 ft | 166 kts | 73° |
| 2026-04-22 16:30 | 48.41030 | -4.58428 | 2338 ft | 161 kts | 73° |
| 2026-04-22 16:30 | 48.41498 | -4.56380 | 2073 ft | 152 kts | 73° |
| 2026-04-22 16:30 | 48.41828 | -4.54926 | 1859 ft | 141 kts | 73° |
| 2026-04-22 16:30 | 48.42139 | -4.53547 | 1668 ft | 137 kts | 72° |
| 2026-04-22 16:31 | 48.42442 | -4.52204 | 1497 ft | 135 kts | 71° |
| 2026-04-22 16:31 | 48.42744 | -4.50877 | 1318 ft | 133 kts | 72° |
| 2026-04-22 16:31 | 48.43042 | -4.49566 | 1113 ft | 133 kts | 72° |
| 2026-04-22 16:31 | 48.43341 | -4.48246 | 937 ft | 133 kts | 72° |
| 2026-04-22 16:32 | 48.43636 | -4.46924 | 757 ft | 134 kts | 72° |
| 2026-04-22 16:32 | 48.43935 | -4.45607 | 570 ft | 132 kts | 73° |
| 2026-04-22 16:32 | 48.44233 | -4.44298 | 393 ft | 132 kts | 71° |
| 2026-04-22 16:32 | 48.44500 | -4.43130 | 304 ft | 125 kts | 73° |
| 2026-04-22 16:33 | 48.44725 | -4.42119 | 327 ft | 79 kts | 71° |
| 2026-04-22 16:33 | 48.44835 | -4.41633 | 332 ft | 31 kts | 71° |
| 2026-04-22 16:33 | 48.44887 | -4.41386 | 328 ft | 15 kts | 84° |
| 2026-04-22 16:33 | 48.44844 | -4.41335 | 331 ft | 5 kts | 162° |
| 2026-04-22 16:34 | 48.44821 | -4.41324 | 330 ft | 2 kts | 162° |
| 2026-04-22 16:34 | 48.44809 | -4.41319 | 327 ft | 4 kts | 161° |
| 2026-04-22 16:34 | 48.44765 | -4.41350 | 330 ft | 8 kts | 249° |
| 2026-04-22 16:34 | 48.44748 | -4.41422 | 332 ft | 7 kts | 252° |
| 2026-04-22 16:35 | 48.44737 | -4.41481 | 331 ft | 5 kts | 256° |
| 2026-04-22 16:35 | 48.44729 | -4.41525 | 329 ft | 4 kts | 256° |
| 2026-04-22 16:35 | 48.44722 | -4.41561 | 331 ft | 7 kts | 252° |
| 2026-04-22 16:35 | 48.44671 | -4.41642 | 332 ft | 12 kts | 221° |
| 2026-04-22 16:36 | 48.44628 | -4.41779 | 328 ft | 16 kts | 251° |
| 2026-04-22 16:36 | 48.44577 | -4.41973 | 331 ft | 21 kts | 226° |
| 2026-04-22 16:36 | 48.44515 | -4.42027 | 330 ft | 9 kts | 242° |
| 2026-04-22 16:36 | 48.44468 | -4.42057 | 330 ft | 7 kts | 172° |
| 2026-04-22 16:37 | 48.44429 | -4.42037 | 331 ft | 5 kts | 161° |
| 2026-04-22 16:37 | 48.44423 | -4.42034 | 332 ft | 0 kts | 161° |